createdAt,value
2022-09-11T00:01:37.465Z,100845.81
2022-09-11T00:04:06.338Z,100839.56
2022-09-11T00:06:34.545Z,100843.38
2022-09-11T00:09:07.491Z,100852.19
2022-09-11T00:11:41.453Z,100849.59
2022-09-11T00:14:11.152Z,100855.28
2022-09-11T00:16:42.435Z,100857.16
2022-09-11T00:19:14.083Z,100859.81
2022-09-11T00:21:42.149Z,100858.72
2022-09-11T00:24:11.260Z,100855.44
2022-09-11T00:26:42.413Z,100862.50
2022-09-11T00:29:10.882Z,100857.34
2022-09-11T00:31:39.145Z,100852.72
2022-09-11T00:34:07.851Z,100857.03
2022-09-11T00:36:37.582Z,100856.97
2022-09-11T00:39:05.692Z,100850.84
2022-09-11T00:41:39.336Z,100858.66
2022-09-11T00:44:29.865Z,100860.78
2022-09-11T00:47:01.100Z,100850.94
2022-09-11T00:49:36.015Z,100854.66
2022-09-11T00:52:10.680Z,100849.25
2022-09-11T00:54:46.268Z,100847.56
2022-09-11T00:57:15.385Z,100845.66
2022-09-11T00:59:48.118Z,100849.16
2022-09-11T01:02:25.508Z,100856.84
2022-09-11T01:04:56.801Z,100852.72
2022-09-11T01:07:27.863Z,100854.41
2022-09-11T01:09:56.157Z,100854.16
2022-09-11T01:12:36.419Z,100858.88
2022-09-11T01:15:10.577Z,100858.38
2022-09-11T01:17:49.265Z,100867.44
2022-09-11T01:20:37.074Z,100862.94
2022-09-11T01:23:43.136Z,100864.72
2022-09-11T01:26:43.426Z,100866.63
2022-09-11T01:29:22.412Z,100865.84
2022-09-11T01:32:00.308Z,100860.69
2022-09-11T01:34:36.704Z,100858.97
2022-09-11T01:37:09.677Z,100861.75
2022-09-11T01:39:45.857Z,100865.41
2022-09-11T01:42:21.480Z,100869.09
2022-09-11T01:44:55.598Z,100864.84
2022-09-11T01:47:24.108Z,100869.41
2022-09-11T01:49:59.614Z,100873.53
2022-09-11T01:52:36.973Z,100868.94
2022-09-11T01:55:13.106Z,100874.50
2022-09-11T01:57:50.398Z,100867.47
2022-09-11T02:00:19.952Z,100872.63
2022-09-11T02:02:59.389Z,100874.09
2022-09-11T02:05:33.611Z,100870.56
2022-09-11T02:08:08.144Z,100880.66
2022-09-11T02:10:48.373Z,100873.00
2022-09-11T02:13:27.844Z,100874.06
2022-09-11T02:16:08.104Z,100872.00
2022-09-11T02:18:46.575Z,100872.38
2022-09-11T02:21:14.351Z,100873.78
2022-09-11T02:23:42.397Z,100875.91
2022-09-11T02:26:14.043Z,100869.19
2022-09-11T02:28:41.984Z,100863.41
2022-09-11T02:31:11.206Z,100869.50
2022-09-11T02:33:39.258Z,100879.34
2022-09-11T02:36:35.539Z,100881.16
2022-09-11T02:39:24.915Z,100887.09
2022-09-11T02:42:15.866Z,100880.72
2022-09-11T02:44:55.132Z,100893.41
2022-09-11T02:47:42.543Z,100886.25
2022-09-11T02:50:26.387Z,100897.47
2022-09-11T02:53:07.532Z,100897.91
2022-09-11T02:55:53.602Z,100903.31
2022-09-11T02:58:28.211Z,100896.88
2022-09-11T03:00:59.714Z,100904.16
2022-09-11T03:03:28.863Z,100900.72
2022-09-11T03:05:57.234Z,100900.16
2022-09-11T03:08:24.999Z,100908.25
2022-09-11T03:10:52.793Z,100905.72
2022-09-11T03:13:20.570Z,100903.13
2022-09-11T03:15:48.571Z,100918.13
2022-09-11T03:18:16.579Z,100910.25
2022-09-11T03:20:47.812Z,100921.16
2022-09-11T03:23:15.564Z,100918.44
2022-09-11T03:25:43.373Z,100931.84
2022-09-11T03:28:11.487Z,100931.53
2022-09-11T03:30:41.457Z,100933.25
2022-09-11T03:33:09.780Z,100931.84
2022-09-11T03:35:38.491Z,100947.53
2022-09-11T03:38:07.548Z,100945.94
2022-09-11T03:40:35.382Z,100952.78
2022-09-11T03:43:03.159Z,100951.03
2022-09-11T03:45:31.062Z,100948.28
2022-09-11T03:47:58.971Z,100959.66
2022-09-11T03:50:27.715Z,100965.34
2022-09-11T03:52:55.493Z,100970.84
2022-09-11T03:55:24.726Z,100981.34
2022-09-11T03:57:52.479Z,100977.84
2022-09-11T04:00:20.420Z,100970.13
2022-09-11T04:02:48.199Z,100968.16
2022-09-11T04:05:16.272Z,100972.22
2022-09-11T04:07:44.051Z,100977.72
2022-09-11T04:10:12.406Z,100976.97
2022-09-11T04:12:41.947Z,100967.25
2022-09-11T04:15:10.819Z,100981.19
2022-09-11T04:17:38.620Z,100974.66
2022-09-11T04:20:07.469Z,100977.28
2022-09-11T04:22:35.598Z,100971.19
2022-09-11T04:25:03.363Z,100967.66
2022-09-11T04:27:31.570Z,100967.66
2022-09-11T04:30:00.679Z,100969.56
2022-09-11T04:32:29.373Z,100964.72
2022-09-11T04:34:57.182Z,100968.19
2022-09-11T04:37:25.100Z,100976.84
2022-09-11T04:39:53.284Z,100974.91
2022-09-11T04:42:21.198Z,100973.03
2022-09-11T04:44:49.024Z,100977.91
2022-09-11T04:47:18.699Z,100973.91
2022-09-11T04:49:47.058Z,100970.38
2022-09-11T04:52:15.358Z,100979.75
2022-09-11T04:54:43.333Z,100978.84
2022-09-11T04:57:11.110Z,100977.41
2022-09-11T04:59:38.931Z,100973.72
2022-09-11T05:02:06.776Z,100984.00
2022-09-11T05:04:35.992Z,100971.78
2022-09-11T05:07:03.815Z,100977.94
2022-09-11T05:09:31.588Z,100972.00
2022-09-11T05:11:59.342Z,100978.19
2022-09-11T05:14:28.155Z,100980.19
2022-09-11T05:16:55.908Z,100981.25
2022-09-11T05:19:24.536Z,100984.78
2022-09-11T05:21:53.750Z,100979.09
2022-09-11T05:24:21.486Z,100977.84
2022-09-11T05:26:49.278Z,100994.25
2022-09-11T05:29:18.536Z,100990.59
2022-09-11T05:31:47.709Z,100990.19
2022-09-11T05:34:15.591Z,100997.88
2022-09-11T05:36:43.432Z,101006.56
2022-09-11T05:39:12.628Z,100995.50
2022-09-11T05:41:40.749Z,101002.94
2022-09-11T05:44:08.539Z,101014.69
2022-09-11T05:46:36.316Z,101024.78
2022-09-11T05:49:04.397Z,101029.06
2022-09-11T05:51:35.689Z,101024.59
2022-09-11T05:54:04.223Z,101039.81
2022-09-11T05:56:33.309Z,101038.78
2022-09-11T05:59:02.596Z,101034.28
2022-09-11T06:01:31.111Z,101044.81
2022-09-11T06:03:59.089Z,101049.34
2022-09-11T06:06:26.995Z,101050.41
2022-09-11T06:08:56.069Z,101053.44
2022-09-11T06:11:23.918Z,101062.78
2022-09-11T06:13:53.117Z,101061.59
2022-09-11T06:16:23.588Z,101062.38
2022-09-11T06:18:53.086Z,101067.09
2022-09-11T06:21:24.586Z,101062.81
2022-09-11T06:23:54.155Z,101061.47
2022-09-11T06:26:24.862Z,101069.50
2022-09-11T06:28:55.458Z,101070.34
2022-09-11T06:31:26.589Z,101071.97
2022-09-11T06:33:54.960Z,101082.69
2022-09-11T06:36:27.007Z,101083.28
2022-09-11T06:38:56.834Z,101082.47
2022-09-11T06:41:26.429Z,101084.53
2022-09-11T06:43:55.833Z,101088.28
2022-09-11T06:46:26.021Z,101100.00
2022-09-11T06:48:54.649Z,101101.78
2022-09-11T06:51:24.434Z,101092.84
2022-09-11T06:53:56.250Z,101099.59
2022-09-11T06:56:24.045Z,101092.16
2022-09-11T06:58:51.900Z,101088.09
2022-09-11T07:01:23.503Z,101099.03
2022-09-11T07:03:53.847Z,101099.66
2022-09-11T07:06:24.648Z,101100.66
2022-09-11T07:08:54.609Z,101097.00
2022-09-11T07:11:22.666Z,101095.91
2022-09-11T07:13:50.486Z,101098.16
2022-09-11T07:16:20.617Z,101104.47
2022-09-11T07:18:49.137Z,101100.03
2022-09-11T07:21:20.967Z,101101.72
2022-09-11T07:23:54.472Z,101103.28
2022-09-11T07:26:24.727Z,101106.06
2022-09-11T07:28:52.994Z,101101.38
2022-09-11T07:31:26.787Z,101103.69
2022-09-11T07:33:54.993Z,101095.78
2022-09-11T07:36:25.219Z,101102.38
2022-09-11T07:38:54.045Z,101105.59
2022-09-11T07:41:24.346Z,101103.59
2022-09-11T07:43:55.859Z,101103.50
2022-09-11T07:46:26.819Z,101103.84
2022-09-11T07:48:56.400Z,101098.81
2022-09-11T07:51:25.677Z,101114.72
2022-09-11T07:53:57.845Z,101105.16
2022-09-11T07:56:28.057Z,101103.09
2022-09-11T07:58:56.823Z,101107.41
2022-09-11T08:01:29.517Z,101109.47
2022-09-11T08:03:59.586Z,101117.81
2022-09-11T08:06:31.951Z,101117.28
2022-09-11T08:09:01.912Z,101116.81
2022-09-11T08:11:32.641Z,101116.88
2022-09-11T08:14:01.227Z,101124.59
2022-09-11T08:16:30.779Z,101128.63
2022-09-11T08:18:59.318Z,101128.28
2022-09-11T08:21:27.614Z,101122.31
2022-09-11T08:23:55.605Z,101119.47
2022-09-11T08:26:26.447Z,101125.59
2022-09-11T08:28:56.780Z,101140.75
2022-09-11T08:31:28.798Z,101145.09
2022-09-11T08:33:58.376Z,101145.97
2022-09-11T08:36:26.883Z,101145.28
2022-09-11T08:38:55.378Z,101144.03
2022-09-11T08:41:41.033Z,101147.50
2022-09-11T08:44:18.898Z,101157.03
2022-09-11T08:46:54.265Z,101142.94
2022-09-11T08:49:27.988Z,101151.50
2022-09-11T08:52:02.620Z,101147.25
2022-09-11T08:54:34.990Z,101148.53
2022-09-11T08:57:18.209Z,101155.50
2022-09-11T09:00:10.381Z,101149.59
2022-09-11T09:03:02.554Z,101158.00
2022-09-11T09:05:43.275Z,101145.63
2022-09-11T09:08:40.406Z,101150.94
2022-09-11T09:11:25.300Z,101153.44
2022-09-11T09:14:23.043Z,101150.56
2022-09-11T09:17:00.781Z,101150.50
2022-09-11T09:19:35.630Z,101160.38
2022-09-11T09:22:15.198Z,101166.91
2022-09-11T09:24:48.479Z,101165.66
2022-09-11T09:27:20.500Z,101159.13
2022-09-11T09:29:54.692Z,101157.63
2022-09-11T09:32:30.962Z,101160.88
2022-09-11T09:35:06.032Z,101168.78
2022-09-11T09:37:37.242Z,101159.44
2022-09-11T09:40:10.834Z,101152.41
2022-09-11T09:43:11.055Z,101163.94
2022-09-11T09:45:57.241Z,101144.97
2022-09-11T09:48:25.987Z,101158.28
2022-09-11T09:50:53.767Z,101156.63
2022-09-11T09:53:32.951Z,101161.50
2022-09-11T09:56:01.661Z,101160.88
2022-09-11T09:58:41.728Z,101164.69
2022-09-11T10:01:45.059Z,101171.09
2022-09-11T10:04:18.485Z,101172.16
2022-09-11T10:06:49.675Z,101173.66
2022-09-11T10:09:26.547Z,101170.41
2022-09-11T10:12:03.334Z,101174.25
2022-09-11T10:14:51.264Z,101172.31
2022-09-11T10:17:31.259Z,101179.44
2022-09-11T10:20:22.896Z,101181.59
2022-09-11T10:22:51.901Z,101183.63
2022-09-11T10:25:26.384Z,101175.41
2022-09-11T10:28:04.165Z,101170.91
2022-09-11T10:30:39.121Z,101169.13
2022-09-11T10:33:19.040Z,101171.63
2022-09-11T10:35:55.122Z,101176.16
2022-09-11T10:38:31.940Z,101180.25
2022-09-11T10:41:09.613Z,101179.34
2022-09-11T10:43:48.332Z,101181.97
2022-09-11T10:46:30.267Z,101180.81
2022-09-11T10:49:09.129Z,101182.66
2022-09-11T10:51:43.072Z,101195.75
2022-09-11T10:54:38.310Z,101190.97
2022-09-11T10:57:18.865Z,101183.97
2022-09-11T11:00:02.797Z,101188.34
2022-09-11T11:02:34.561Z,101192.25
2022-09-11T11:05:08.117Z,101190.75
2022-09-11T11:08:01.897Z,101190.22
2022-09-11T11:10:48.449Z,101199.00
2022-09-11T11:13:38.427Z,101194.28
2022-09-11T11:16:20.180Z,101198.59
2022-09-11T11:19:09.035Z,101202.16
2022-09-11T11:21:55.748Z,101188.31
2022-09-11T11:24:47.606Z,101190.53
2022-09-11T11:27:55.866Z,101185.59
2022-09-11T11:30:32.204Z,101185.97
2022-09-11T11:33:25.253Z,101198.06
2022-09-11T11:36:05.261Z,101196.78
2022-09-11T11:38:42.253Z,101185.00
2022-09-11T11:41:19.767Z,101189.97
2022-09-11T11:43:52.047Z,101192.94
2022-09-11T11:46:30.911Z,101182.63
2022-09-11T11:49:02.880Z,101187.59
2022-09-11T11:51:41.903Z,101188.13
2022-09-11T11:54:18.323Z,101188.53
2022-09-11T11:56:51.691Z,101189.97
2022-09-11T11:59:31.197Z,101178.56
2022-09-11T12:02:12.054Z,101183.34
2022-09-11T12:04:48.783Z,101196.38
2022-09-11T12:07:28.242Z,101182.31
2022-09-11T12:09:59.070Z,101190.44
2022-09-11T12:12:31.171Z,101191.09
2022-09-11T12:15:07.399Z,101185.41
2022-09-11T12:17:39.862Z,101194.28
2022-09-11T12:20:39.124Z,101200.63
2022-09-11T12:23:35.318Z,101205.19
2022-09-11T12:26:22.119Z,101202.25
2022-09-11T12:28:51.571Z,101200.06
2022-09-11T12:31:19.754Z,101198.69
2022-09-11T12:33:56.297Z,101208.69
2022-09-11T12:36:53.823Z,101205.00
2022-09-11T12:39:32.463Z,101199.47
2022-09-11T12:42:48.629Z,101212.56
2022-09-11T12:45:38.399Z,101209.34
2022-09-11T12:48:11.319Z,101208.81
2022-09-11T12:50:49.333Z,101208.47
2022-09-11T12:53:24.828Z,101210.59
2022-09-11T12:55:59.712Z,101204.69
2022-09-11T12:58:34.888Z,101203.19
2022-09-11T13:01:08.530Z,101207.25
2022-09-11T13:03:38.602Z,101204.19
2022-09-11T13:06:13.661Z,101202.56
2022-09-11T13:08:50.694Z,101192.34
2022-09-11T13:11:41.141Z,101193.03
2022-09-11T13:14:47.120Z,101194.03
2022-09-11T13:17:25.715Z,101181.31
2022-09-11T13:19:57.604Z,101179.31
2022-09-11T13:22:31.211Z,101180.81
2022-09-11T13:25:14.296Z,101183.63
2022-09-11T13:27:46.342Z,101188.03
2022-09-11T13:30:17.682Z,101186.44
2022-09-11T13:32:48.984Z,101191.13
2022-09-11T13:35:22.840Z,101193.81
2022-09-11T13:37:59.432Z,101189.31
2022-09-11T13:40:35.632Z,101194.03
2022-09-11T13:43:05.005Z,101185.78
2022-09-11T13:45:32.950Z,101185.69
2022-09-11T13:48:00.838Z,101204.22
2022-09-11T13:50:28.689Z,101190.34
2022-09-11T13:52:58.441Z,101197.75
2022-09-11T13:55:27.762Z,101203.50
2022-09-11T13:57:59.223Z,101197.59
2022-09-11T14:00:45.798Z,101195.00
2022-09-11T14:03:24.832Z,101196.59
2022-09-11T14:05:55.972Z,101188.63
2022-09-11T14:08:34.269Z,101198.47
2022-09-11T14:11:11.246Z,101188.53
2022-09-11T14:13:47.569Z,101186.44
2022-09-11T14:16:25.304Z,101193.69
2022-09-11T14:18:59.456Z,101189.13
2022-09-11T14:21:34.300Z,101176.41
2022-09-11T14:24:07.465Z,101171.94
2022-09-11T14:26:42.420Z,101179.53
2022-09-11T14:29:25.175Z,101176.88
2022-09-11T14:31:54.246Z,101180.25
2022-09-11T14:34:27.513Z,101189.41
2022-09-11T14:37:03.584Z,101182.47
2022-09-11T14:39:39.991Z,101185.19
2022-09-11T14:42:09.747Z,101174.88
2022-09-11T14:44:40.322Z,101176.28
2022-09-11T14:47:15.502Z,101174.81
2022-09-11T14:49:43.236Z,101182.66
2022-09-11T14:52:15.194Z,101176.22
2022-09-11T14:54:44.708Z,101177.53
2022-09-11T14:57:19.788Z,101186.69
2022-09-11T14:59:48.486Z,101191.56
2022-09-11T15:02:20.879Z,101187.63
2022-09-11T15:04:49.318Z,101191.22
2022-09-11T15:07:19.745Z,101193.09
2022-09-11T15:09:48.849Z,101186.19
2022-09-11T15:12:17.591Z,101182.44
2022-09-11T15:14:56.544Z,101192.00
2022-09-11T15:17:31.362Z,101194.81
2022-09-11T15:20:00.571Z,101196.16
2022-09-11T15:22:29.097Z,101208.81
2022-09-11T15:25:00.316Z,101199.06
2022-09-11T15:27:28.388Z,101205.31
2022-09-11T15:29:56.444Z,101199.06
2022-09-11T15:32:24.320Z,101205.50
2022-09-11T15:34:53.965Z,101203.94
2022-09-11T15:37:21.901Z,101196.31
2022-09-11T15:39:50.687Z,101209.53
2022-09-11T15:42:20.346Z,101198.00
2022-09-11T15:44:48.119Z,101195.13
2022-09-11T15:47:16.550Z,101200.16
2022-09-11T15:49:47.600Z,101200.06
2022-09-11T15:52:15.994Z,101203.59
2022-09-11T15:54:45.646Z,101195.63
2022-09-11T15:57:13.418Z,101201.66
2022-09-11T15:59:43.046Z,101201.19
2022-09-11T16:02:12.517Z,101200.69
2022-09-11T16:04:40.446Z,101197.41
2022-09-11T16:07:08.294Z,101200.19
2022-09-11T16:09:36.225Z,101195.84
2022-09-11T16:12:04.944Z,101204.63
2022-09-11T16:14:37.773Z,101197.94
2022-09-11T16:17:09.170Z,101199.09
2022-09-11T16:19:38.609Z,101193.75
2022-09-11T16:22:08.828Z,101198.44
2022-09-11T16:24:38.066Z,101197.88
2022-09-11T16:27:10.223Z,101197.81
2022-09-11T16:30:15.443Z,101197.34
2022-09-11T16:32:34.066Z,101196.75
2022-09-11T16:35:01.847Z,101199.31
2022-09-11T16:37:34.005Z,101192.81
2022-09-11T16:40:04.059Z,101195.84
2022-09-11T16:42:32.367Z,101194.19
2022-09-11T16:45:00.157Z,101195.34
2022-09-11T16:47:30.348Z,101190.09
2022-09-11T16:50:13.328Z,101181.19
2022-09-11T16:52:41.127Z,101185.13
2022-09-11T16:55:10.525Z,101181.13
2022-09-11T16:57:38.634Z,101187.34
2022-09-11T17:00:08.921Z,101185.69
2022-09-11T17:02:38.533Z,101191.13
2022-09-11T17:05:06.911Z,101200.78
2022-09-11T17:07:35.432Z,101198.66
2022-09-11T17:10:03.456Z,101201.53
2022-09-11T17:12:31.270Z,101205.78
2022-09-11T17:14:59.059Z,101205.66
2022-09-11T17:17:26.940Z,101200.00
2022-09-11T17:19:58.357Z,101205.06
2022-09-11T17:22:26.906Z,101205.28
2022-09-11T17:24:54.715Z,101211.44
2022-09-11T17:27:23.202Z,101211.41
2022-09-11T17:29:51.124Z,101210.94
2022-09-11T17:32:29.182Z,101218.81
2022-09-11T17:34:59.344Z,101221.19
2022-09-11T17:37:28.291Z,101220.59
2022-09-11T17:39:57.888Z,101226.28
2022-09-11T17:42:28.650Z,101221.69
2022-09-11T17:44:56.499Z,101223.81
2022-09-11T17:47:24.349Z,101220.84
2022-09-11T17:49:52.298Z,101218.28
2022-09-11T17:52:21.430Z,101226.41
2022-09-11T17:54:49.279Z,101227.00
2022-09-11T17:57:17.112Z,101221.75
2022-09-11T17:59:44.971Z,101224.97
2022-09-11T18:02:15.307Z,101221.84
2022-09-11T18:04:44.218Z,101223.81
2022-09-11T18:07:12.221Z,101225.06
2022-09-11T18:09:41.416Z,101228.63
2022-09-11T18:12:10.029Z,101223.78
2022-09-11T18:14:39.044Z,101225.78
2022-09-11T18:17:07.111Z,101224.47
2022-09-11T18:19:34.937Z,101222.59
2022-09-11T18:22:02.761Z,101220.31
2022-09-11T18:24:31.230Z,101224.66
2022-09-11T18:27:01.216Z,101218.72
2022-09-11T18:29:30.640Z,101219.63
2022-09-11T18:31:59.874Z,101224.03
2022-09-11T18:34:29.187Z,101224.50
2022-09-11T18:36:57.012Z,101225.50
2022-09-11T18:39:25.240Z,101232.28
2022-09-11T18:41:53.449Z,101237.31
2022-09-11T18:44:25.180Z,101242.19
2022-09-11T18:46:54.923Z,101245.63
2022-09-11T18:49:23.549Z,101245.16
2022-09-11T18:51:53.688Z,101247.25
2022-09-11T18:54:22.548Z,101242.38
2022-09-11T18:56:51.530Z,101242.06
2022-09-11T18:59:20.462Z,101245.72
2022-09-11T19:01:49.769Z,101242.47
2022-09-11T19:04:18.978Z,101251.34
2022-09-11T19:06:46.902Z,101246.94
2022-09-11T19:09:15.493Z,101254.63
2022-09-11T19:11:43.564Z,101244.63
2022-09-11T19:14:14.220Z,101254.19
2022-09-11T19:16:42.781Z,101262.00
2022-09-11T19:19:11.896Z,101266.41
2022-09-11T19:21:39.817Z,101275.00
2022-09-11T19:24:08.509Z,101272.25
2022-09-11T19:26:39.878Z,101275.94
2022-09-11T19:29:09.027Z,101274.16
2022-09-11T19:31:39.350Z,101273.84
2022-09-11T19:34:09.577Z,101275.88
2022-09-11T19:36:38.872Z,101279.09
2022-09-11T19:39:07.430Z,101275.34
2022-09-11T19:41:38.623Z,101281.38
2022-09-11T19:44:09.097Z,101281.03
2022-09-11T19:46:38.345Z,101285.72
2022-09-11T19:49:07.723Z,101286.75
2022-09-11T19:51:40.889Z,101282.25
2022-09-11T19:54:11.165Z,101283.97
2022-09-11T19:56:40.072Z,101293.38
2022-09-11T19:59:09.571Z,101296.00
2022-09-11T20:01:37.580Z,101296.38
2022-09-11T20:04:06.277Z,101293.63
2022-09-11T20:06:36.263Z,101293.16
2022-09-11T20:09:29.829Z,101291.56
2022-09-11T20:11:55.196Z,101299.09
2022-09-11T20:14:23.290Z,101291.50
2022-09-11T20:16:51.062Z,101288.78
2022-09-11T20:19:20.523Z,101294.78
2022-09-11T20:21:48.321Z,101293.00
2022-09-11T20:24:17.431Z,101299.41
2022-09-11T20:26:45.305Z,101298.72
2022-09-11T20:29:15.763Z,101295.91
2022-09-11T20:31:48.883Z,101296.09
2022-09-11T20:34:19.628Z,101299.75
2022-09-11T20:36:48.092Z,101298.66
2022-09-11T20:39:17.472Z,101294.22
2022-09-11T20:41:46.676Z,101296.88
2022-09-11T20:44:14.540Z,101297.72
2022-09-11T20:46:43.632Z,101298.56
2022-09-11T20:49:12.356Z,101297.81
2022-09-11T20:51:42.475Z,101298.31
2022-09-11T20:54:10.781Z,101295.38
2022-09-11T20:56:40.560Z,101298.19
2022-09-11T20:59:08.686Z,101305.59
2022-09-11T21:01:39.982Z,101293.50
2022-09-11T21:04:11.363Z,101299.66
2022-09-11T21:06:41.581Z,101296.06
2022-09-11T21:09:12.361Z,101297.97
2022-09-11T21:11:43.350Z,101294.91
2022-09-11T21:14:12.322Z,101304.69
2022-09-11T21:16:40.369Z,101301.22
2022-09-11T21:19:09.544Z,101301.59
2022-09-11T21:21:39.995Z,101295.28
2022-09-11T21:24:12.237Z,101301.47
2022-09-11T21:26:42.762Z,101301.44
2022-09-11T21:29:13.951Z,101309.31
2022-09-11T21:31:41.920Z,101305.78
2022-09-11T21:34:11.329Z,101301.66
2022-09-11T21:36:39.379Z,101298.38
2022-09-11T21:39:07.415Z,101302.81
2022-09-11T21:41:35.531Z,101303.50
2022-09-11T21:44:05.196Z,101297.06
2022-09-11T21:46:33.198Z,101294.91
2022-09-11T21:49:01.770Z,101305.59
2022-09-11T21:51:31.014Z,101301.53
2022-09-11T21:54:01.666Z,101301.34
2022-09-11T21:56:33.476Z,101296.25
2022-09-11T21:59:02.010Z,101296.91
2022-09-11T22:01:32.819Z,101297.63
2022-09-11T22:04:01.713Z,101297.72
2022-09-11T22:06:31.017Z,101299.41
2022-09-11T22:09:01.537Z,101293.31
2022-09-11T22:11:32.672Z,101299.28
2022-09-11T22:14:00.511Z,101299.34
2022-09-11T22:16:29.013Z,101295.88
2022-09-11T22:18:58.156Z,101301.31
2022-09-11T22:21:26.004Z,101295.94
2022-09-11T22:23:55.025Z,101300.38
2022-09-11T22:26:24.404Z,101316.34
2022-09-11T22:28:52.943Z,101311.56
2022-09-11T22:31:24.850Z,101305.34
2022-09-11T22:33:55.007Z,101312.09
2022-09-11T22:36:27.472Z,101306.72
2022-09-11T22:38:56.358Z,101310.16
2022-09-11T22:41:24.749Z,101302.03
2022-09-11T22:43:52.589Z,101311.66
2022-09-11T22:46:21.618Z,101311.28
2022-09-11T22:48:49.650Z,101303.41
2022-09-11T22:51:17.755Z,101301.59
2022-09-11T22:53:47.233Z,101304.25
2022-09-11T22:56:15.650Z,101299.69
2022-09-11T22:58:43.970Z,101308.63
2022-09-11T23:01:19.670Z,101305.31
2022-09-11T23:03:49.873Z,101296.13
2022-09-11T23:06:35.673Z,101296.28
2022-09-11T23:09:06.845Z,101300.56
2022-09-11T23:11:34.784Z,101301.38
2022-09-11T23:14:02.624Z,101307.38
2022-09-11T23:16:31.433Z,101305.53
2022-09-11T23:19:02.091Z,101305.66
2022-09-11T23:21:32.925Z,101308.50
2022-09-11T23:24:01.983Z,101303.97
2022-09-11T23:26:34.246Z,101301.81
2022-09-11T23:29:02.114Z,101301.16
2022-09-11T23:31:35.005Z,101301.59
2022-09-11T23:34:06.251Z,101308.28
2022-09-11T23:36:37.369Z,101302.97
2022-09-11T23:39:05.756Z,101297.41
2022-09-11T23:41:34.956Z,101297.34
2022-09-11T23:44:03.858Z,101294.78
2022-09-11T23:46:31.969Z,101295.56
2022-09-11T23:48:59.808Z,101293.88
2022-09-11T23:51:27.749Z,101293.75
2022-09-11T23:53:55.514Z,101293.25
2022-09-11T23:56:23.380Z,101290.56
2022-09-11T23:58:52.458Z,101283.53
